createdAt,value
2018-11-21T00:01:49.317Z,20.20
2018-11-21T00:04:23.039Z,20.87
2018-11-21T00:06:56.759Z,22.03
2018-11-21T00:09:30.477Z,21.77
2018-11-21T00:12:04.222Z,21.77
2018-11-21T00:14:37.848Z,21.73
2018-11-21T00:17:11.615Z,23.03
2018-11-21T00:19:45.560Z,22.83
2018-11-21T00:22:20.397Z,22.77
2018-11-21T00:24:54.047Z,23.03
2018-11-21T00:27:27.937Z,22.43
2018-11-21T00:30:01.563Z,22.23
2018-11-21T00:32:35.366Z,22.43
2018-11-21T00:35:09.783Z,22.93
2018-11-21T00:37:43.456Z,21.80
2018-11-21T00:40:17.250Z,22.77
2018-11-21T00:42:51.089Z,22.40
2018-11-21T00:45:24.711Z,22.77
2018-11-21T00:47:58.437Z,21.60
2018-11-21T00:50:32.118Z,23.07
2018-11-21T00:53:05.777Z,23.40
2018-11-21T00:55:39.405Z,21.63
2018-11-21T00:58:13.068Z,22.47
2018-11-21T01:00:46.713Z,23.20
2018-11-21T01:03:20.493Z,24.37
2018-11-21T01:05:54.105Z,22.23
2018-11-21T01:08:27.754Z,22.37
2018-11-21T01:11:01.384Z,23.50
2018-11-21T01:13:35.149Z,22.47
2018-11-21T01:16:08.802Z,22.37
2018-11-21T01:18:42.579Z,23.97
2018-11-21T01:21:16.213Z,23.53
2018-11-21T01:23:49.982Z,23.63
2018-11-21T01:26:23.623Z,23.47
2018-11-21T01:28:57.385Z,23.17
2018-11-21T01:31:31.446Z,23.00
2018-11-21T01:34:05.258Z,24.97
2018-11-21T01:36:38.933Z,24.80
2018-11-21T01:39:12.700Z,23.90
2018-11-21T01:41:46.358Z,23.73
2018-11-21T01:44:20.038Z,25.00
2018-11-21T01:46:53.678Z,23.67
2018-11-21T01:49:27.360Z,22.67
2018-11-21T01:52:01.002Z,23.60
2018-11-21T01:54:34.758Z,24.97
2018-11-21T01:57:08.386Z,24.63
2018-11-21T01:59:42.050Z,23.83
2018-11-21T02:02:15.692Z,24.20
2018-11-21T02:04:49.447Z,24.53
2018-11-21T02:07:23.072Z,24.70
2018-11-21T02:09:56.757Z,24.77
2018-11-21T02:12:30.400Z,24.87
2018-11-21T02:15:04.322Z,24.83
2018-11-21T02:17:37.986Z,24.53
2018-11-21T02:20:11.761Z,24.73
2018-11-21T02:22:45.494Z,25.43
2018-11-21T02:25:19.174Z,24.67
2018-11-21T02:27:52.800Z,24.87
2018-11-21T02:30:26.543Z,24.50
2018-11-21T02:33:00.180Z,24.67
2018-11-21T02:35:34.084Z,25.20
2018-11-21T02:38:07.713Z,24.80
2018-11-21T02:40:41.406Z,24.87
2018-11-21T02:43:15.018Z,25.70
2018-11-21T02:45:48.699Z,25.03
2018-11-21T02:48:22.359Z,25.20
2018-11-21T02:50:56.255Z,25.87
2018-11-21T02:53:30.011Z,25.47
2018-11-21T02:56:03.914Z,25.50
2018-11-21T02:58:37.669Z,25.70
2018-11-21T03:01:11.539Z,25.13
2018-11-21T03:03:45.385Z,25.73
2018-11-21T03:06:19.188Z,26.07
2018-11-21T03:08:52.937Z,26.00
2018-11-21T03:11:26.817Z,25.97
2018-11-21T03:14:00.571Z,25.90
2018-11-21T03:16:34.414Z,26.73
2018-11-21T03:19:08.229Z,26.03
2018-11-21T03:21:42.223Z,26.57
2018-11-21T03:24:15.992Z,27.13
2018-11-21T03:26:50.075Z,26.80
2018-11-21T03:29:23.934Z,26.53
2018-11-21T03:31:57.900Z,27.37
2018-11-21T03:34:31.662Z,26.57
2018-11-21T03:37:05.718Z,27.27
2018-11-21T03:39:39.449Z,27.07
2018-11-21T03:42:13.243Z,27.33
2018-11-21T03:44:46.994Z,27.27
2018-11-21T03:47:20.784Z,28.60
2018-11-21T03:49:54.536Z,27.70
2018-11-21T03:52:28.322Z,27.60
2018-11-21T03:55:02.065Z,27.97
2018-11-21T03:57:36.151Z,26.77
2018-11-21T04:00:11.521Z,27.73
2018-11-21T04:02:45.408Z,27.63
2018-11-21T04:05:19.196Z,28.23
2018-11-21T04:07:53.281Z,27.93
2018-11-21T04:10:27.037Z,27.43
2018-11-21T04:13:00.821Z,28.23
2018-11-21T04:15:34.618Z,27.90
2018-11-21T04:18:08.402Z,27.73
2018-11-21T04:20:42.157Z,26.60
2018-11-21T04:23:15.992Z,25.90
2018-11-21T04:25:49.754Z,28.37
2018-11-21T04:28:23.617Z,26.93
2018-11-21T04:30:57.355Z,27.70
2018-11-21T04:33:31.418Z,27.60
2018-11-21T04:36:05.678Z,27.70
2018-11-21T04:38:39.455Z,26.97
2018-11-21T04:41:13.189Z,25.87
2018-11-21T04:43:47.018Z,26.63
2018-11-21T04:46:20.799Z,27.10
2018-11-21T04:48:54.671Z,26.20
2018-11-21T04:51:28.421Z,26.17
2018-11-21T04:54:02.238Z,27.23
2018-11-21T04:56:35.987Z,26.37
2018-11-21T04:59:09.774Z,27.87
2018-11-21T05:01:43.519Z,27.03
2018-11-21T05:04:17.386Z,26.17
2018-11-21T05:06:51.139Z,26.50
2018-11-21T05:09:24.942Z,26.57
2018-11-21T05:11:58.760Z,25.97
2018-11-21T05:14:32.542Z,25.47
2018-11-21T05:17:06.500Z,26.77
2018-11-21T05:19:40.508Z,26.53
2018-11-21T05:22:14.255Z,26.57
2018-11-21T05:24:48.159Z,25.13
2018-11-21T05:27:21.919Z,26.97
2018-11-21T05:29:55.684Z,25.13
2018-11-21T05:32:29.531Z,26.23
2018-11-21T05:35:03.387Z,26.20
2018-11-21T05:37:37.176Z,25.57
2018-11-21T05:40:11.550Z,26.73
2018-11-21T05:42:45.299Z,24.90
2018-11-21T05:45:19.097Z,26.43
2018-11-21T05:47:52.850Z,26.20
2018-11-21T05:50:26.649Z,26.53
2018-11-21T05:53:00.403Z,24.53
2018-11-21T05:55:34.485Z,25.03
2018-11-21T05:58:08.226Z,26.10
2018-11-21T06:00:42.200Z,24.20
2018-11-21T06:03:15.952Z,23.30
2018-11-21T06:05:49.735Z,26.37
2018-11-21T06:08:23.496Z,25.37
2018-11-21T06:10:57.392Z,24.10
2018-11-21T06:13:31.232Z,24.43
2018-11-21T06:16:05.500Z,25.03
2018-11-21T06:18:39.261Z,24.63
2018-11-21T06:21:13.160Z,24.43
2018-11-21T06:23:46.967Z,25.83
2018-11-21T06:26:20.744Z,24.47
2018-11-21T06:28:54.521Z,25.20
2018-11-21T06:31:28.334Z,23.93
2018-11-21T06:34:02.188Z,25.20
2018-11-21T06:36:35.986Z,25.87
2018-11-21T06:39:09.751Z,25.10
2018-11-21T06:41:43.558Z,25.33
2018-11-21T06:44:17.301Z,25.63
2018-11-21T06:46:51.248Z,24.80
2018-11-21T06:49:24.989Z,25.87
2018-11-21T06:51:58.851Z,25.00
2018-11-21T06:54:32.595Z,25.97
2018-11-21T06:57:06.475Z,25.87
2018-11-21T06:59:40.217Z,23.87
2018-11-21T07:02:14.028Z,26.07
2018-11-21T07:04:47.787Z,25.80
2018-11-21T07:07:21.600Z,26.07
2018-11-21T07:09:55.386Z,26.97
2018-11-21T07:12:29.294Z,25.70
2018-11-21T07:15:03.062Z,26.03
2018-11-21T07:17:36.914Z,27.03
2018-11-21T07:20:12.509Z,25.27
2018-11-21T07:22:46.311Z,25.07
2018-11-21T07:25:21.761Z,26.03
2018-11-21T07:27:55.572Z,25.30
2018-11-21T07:30:29.319Z,26.23
2018-11-21T07:33:03.119Z,26.17
2018-11-21T07:35:36.964Z,26.80
2018-11-21T07:38:10.750Z,25.87
2018-11-21T07:40:44.535Z,27.03
2018-11-21T07:43:18.352Z,25.13
2018-11-21T07:45:52.138Z,25.90
2018-11-21T07:48:26.008Z,25.80
2018-11-21T07:51:02.771Z,27.00
2018-11-21T07:53:36.657Z,26.10
2018-11-21T07:56:57.282Z,25.47
2018-11-21T07:59:31.882Z,26.77
2018-11-21T08:02:20.266Z,26.83
2018-11-21T08:05:01.937Z,25.70
2018-11-21T08:07:41.229Z,26.70
2018-11-21T08:10:43.435Z,25.13
2018-11-21T08:13:46.449Z,26.87
2018-11-21T08:16:42.362Z,27.37
2018-11-21T08:19:35.708Z,27.03
2018-11-21T08:22:46.666Z,27.20
2018-11-21T08:25:51.695Z,27.90
2018-11-21T08:28:32.263Z,25.93
2018-11-21T08:31:06.038Z,27.80
2018-11-21T08:33:39.968Z,26.80
2018-11-21T08:36:13.783Z,25.73
2018-11-21T08:38:47.907Z,26.40
2018-11-21T08:41:21.839Z,26.60
2018-11-21T08:46:29.589Z,26.33
2018-11-21T08:49:03.385Z,26.40
2018-11-21T08:51:37.239Z,26.63
2018-11-21T08:54:11.136Z,25.83
2018-11-21T08:56:45.039Z,25.63
2018-11-21T08:59:18.891Z,26.70
2018-11-21T09:01:53.152Z,27.43
2018-11-21T09:04:26.987Z,27.00
2018-11-21T09:07:00.857Z,27.17
2018-11-21T09:09:34.622Z,24.97
2018-11-21T09:12:08.877Z,26.10
2018-11-21T09:14:42.270Z,26.90
2018-11-21T09:17:16.099Z,26.03
2018-11-21T09:19:49.872Z,25.60
2018-11-21T09:22:23.803Z,26.53
2018-11-21T09:24:57.530Z,25.87
2018-11-21T09:27:32.013Z,27.37
2018-11-21T09:30:11.722Z,25.83
2018-11-21T09:32:46.288Z,25.73
2018-11-21T09:35:20.398Z,26.23
2018-11-21T09:37:54.204Z,26.13
2018-11-21T09:40:27.950Z,25.00
2018-11-21T09:43:01.758Z,25.67
2018-11-21T09:45:35.508Z,26.03
2018-11-21T09:48:09.393Z,25.20
2018-11-21T09:50:43.175Z,25.87
2018-11-21T09:53:16.966Z,24.97
2018-11-21T09:55:50.746Z,25.57
2018-11-21T09:58:24.547Z,26.17
2018-11-21T10:01:34.828Z,27.13
2018-11-21T10:04:08.645Z,26.23
2018-11-21T10:06:43.906Z,26.97
2018-11-21T10:09:20.735Z,26.10
2018-11-21T10:11:54.489Z,26.40
2018-11-21T10:14:28.641Z,26.13
2018-11-21T10:17:02.395Z,26.93
2018-11-21T10:19:36.200Z,27.33
2018-11-21T10:22:09.968Z,26.73
2018-11-21T10:24:43.934Z,27.40
2018-11-21T10:27:17.681Z,26.03
2018-11-21T10:29:51.533Z,26.50
2018-11-21T10:32:25.285Z,26.57
2018-11-21T10:34:59.187Z,27.53
2018-11-21T10:37:32.947Z,26.53
2018-11-21T10:40:07.867Z,27.77
2018-11-21T10:42:41.624Z,28.13
2018-11-21T10:45:15.434Z,27.07
2018-11-21T10:47:49.198Z,25.97
2018-11-21T10:50:23.003Z,27.97
2018-11-21T10:52:56.821Z,27.97
2018-11-21T10:55:31.060Z,27.23
2018-11-21T10:58:05.142Z,27.17
2018-11-21T11:00:56.800Z,27.17
2018-11-21T11:03:33.160Z,27.10
2018-11-21T11:06:29.544Z,27.53
2018-11-21T11:09:34.354Z,27.47
2018-11-21T11:12:26.056Z,26.77
2018-11-21T11:15:17.697Z,25.97
2018-11-21T11:18:13.513Z,27.50
2018-11-21T11:21:18.109Z,27.63
2018-11-21T11:24:13.747Z,28.50
2018-11-21T11:27:18.719Z,27.93
2018-11-21T11:30:20.947Z,28.57
2018-11-21T11:33:05.939Z,27.03
2018-11-21T11:36:01.733Z,27.00
2018-11-21T11:38:54.484Z,28.20
2018-11-21T11:41:45.715Z,26.77
2018-11-21T11:44:38.510Z,27.93
2018-11-21T11:47:30.111Z,27.40
2018-11-21T11:50:17.910Z,26.03
2018-11-21T11:53:09.087Z,26.40
2018-11-21T11:56:17.149Z,27.87
2018-11-21T11:59:09.952Z,27.23
2018-11-21T12:02:17.721Z,26.30
2018-11-21T12:05:09.096Z,26.20
2018-11-21T12:08:16.724Z,26.93
2018-11-21T12:11:04.606Z,28.73
2018-11-21T12:14:15.618Z,27.13
2018-11-21T12:17:08.770Z,26.23
2018-11-21T12:20:00.138Z,26.37
2018-11-21T12:22:52.930Z,26.30
2018-11-21T12:25:44.312Z,26.03
2018-11-21T12:28:39.760Z,25.40
2018-11-21T12:31:31.073Z,26.17
2018-11-21T12:34:22.953Z,27.03
2018-11-21T12:37:14.147Z,26.63
2018-11-21T12:40:05.176Z,26.77
2018-11-21T12:43:04.065Z,26.73
2018-11-21T12:45:56.869Z,26.40
2018-11-21T12:48:43.230Z,26.80
2018-11-21T12:51:34.921Z,26.30
2018-11-21T12:54:45.544Z,27.37
2018-11-21T12:57:38.422Z,26.50
2018-11-21T13:00:23.281Z,26.23
2018-11-21T13:03:18.740Z,25.83
2018-11-21T13:06:02.326Z,26.03
2018-11-21T13:08:53.754Z,25.43
2018-11-21T13:11:50.912Z,27.77
2018-11-21T13:14:56.058Z,27.13
2018-11-21T13:17:47.592Z,26.70
2018-11-21T13:20:58.864Z,26.53
2018-11-21T13:24:00.792Z,25.73
2018-11-21T13:26:52.370Z,24.37
2018-11-21T13:29:45.176Z,26.03
2018-11-21T13:32:44.321Z,25.77
2018-11-21T13:35:37.215Z,26.40
2018-11-21T13:38:28.501Z,26.43
2018-11-21T13:41:12.468Z,26.53
2018-11-21T13:44:03.956Z,25.70
2018-11-21T13:46:55.201Z,26.23
2018-11-21T13:49:56.799Z,25.50
2018-11-21T13:52:49.323Z,26.00
2018-11-21T13:55:23.188Z,25.70
2018-11-21T13:57:56.956Z,25.47
2018-11-21T14:00:30.867Z,25.10
2018-11-21T14:03:04.649Z,32.13
2018-11-21T14:05:38.509Z,45.37
2018-11-21T14:08:12.259Z,45.47
2018-11-21T14:10:46.167Z,32.90
2018-11-21T14:13:19.970Z,39.80
2018-11-21T14:15:53.771Z,28.60
2018-11-21T14:18:27.532Z,26.43
2018-11-21T14:21:01.411Z,34.27
2018-11-21T14:23:35.213Z,27.20
2018-11-21T14:26:09.155Z,30.37
2018-11-21T14:28:42.925Z,26.47
2018-11-21T14:31:16.740Z,26.57
2018-11-21T14:33:50.481Z,25.43
2018-11-21T14:36:24.317Z,26.50
2018-11-21T14:38:58.075Z,27.00
2018-11-21T14:41:31.881Z,26.63
2018-11-21T14:44:06.049Z,25.90
2018-11-21T14:46:40.748Z,25.63
2018-11-21T14:49:14.516Z,25.67
2018-11-21T14:51:48.296Z,26.93
2018-11-21T14:54:22.068Z,25.70
2018-11-21T14:56:55.857Z,26.33
2018-11-21T14:59:29.666Z,26.63
2018-11-21T15:02:03.534Z,26.77
2018-11-21T15:04:37.274Z,26.53
2018-11-21T15:07:11.063Z,27.63
2018-11-21T15:09:44.833Z,27.63
2018-11-21T15:12:18.657Z,28.07
2018-11-21T15:14:52.382Z,27.43
2018-11-21T15:17:26.192Z,28.30
2018-11-21T15:20:00.030Z,28.47
2018-11-21T15:22:33.832Z,26.90
2018-11-21T15:25:09.954Z,28.00
2018-11-21T15:27:43.859Z,29.03
2018-11-21T15:30:23.252Z,29.60
2018-11-21T15:32:57.069Z,27.70
2018-11-21T15:35:30.808Z,37.33
2018-11-21T15:38:04.695Z,34.27
2018-11-21T15:40:38.528Z,36.40
2018-11-21T15:43:12.398Z,28.57
2018-11-21T15:45:46.150Z,27.80
2018-11-21T15:48:19.973Z,28.33
2018-11-21T15:50:53.740Z,27.80
2018-11-21T15:53:27.527Z,29.07
2018-11-21T15:56:01.365Z,29.13
2018-11-21T15:58:35.412Z,29.60
2018-11-21T16:01:09.171Z,28.83
2018-11-21T16:03:42.966Z,29.20
2018-11-21T16:06:16.758Z,29.90
2018-11-21T16:08:50.565Z,28.30
2018-11-21T16:11:24.308Z,27.83
2018-11-21T16:13:58.385Z,27.67
2018-11-21T16:16:32.138Z,27.57
2018-11-21T16:19:06.250Z,27.63
2018-11-21T16:21:40.012Z,28.10
2018-11-21T16:24:13.832Z,27.00
2018-11-21T16:26:47.599Z,28.53
2018-11-21T16:29:21.382Z,28.67
2018-11-21T16:31:55.231Z,29.13
2018-11-21T16:34:29.024Z,29.23
2018-11-21T16:37:02.782Z,28.33
2018-11-21T16:39:36.672Z,30.00
2018-11-21T16:42:10.444Z,30.07
2018-11-21T16:44:44.312Z,29.73
2018-11-21T16:47:18.080Z,29.03
2018-11-21T16:49:51.877Z,31.03
2018-11-21T16:52:25.617Z,30.73
2018-11-21T16:54:59.600Z,31.07
2018-11-21T16:57:33.370Z,31.23
2018-11-21T17:00:10.312Z,31.13
2018-11-21T17:02:44.059Z,31.73
2018-11-21T17:05:19.246Z,32.20
2018-11-21T17:07:53.217Z,31.50
2018-11-21T17:10:28.546Z,32.10
2018-11-21T17:13:02.388Z,32.23
2018-11-21T17:15:36.747Z,31.20
2018-11-21T17:18:10.533Z,31.70
2018-11-21T17:20:45.322Z,31.43
2018-11-21T17:23:19.095Z,30.13
2018-11-21T17:25:52.926Z,31.57
2018-11-21T17:28:26.727Z,30.43
2018-11-21T17:31:00.610Z,32.43
2018-11-21T17:33:34.533Z,33.63
2018-11-21T17:36:08.390Z,33.70
2018-11-21T17:38:42.346Z,36.17
2018-11-21T17:41:16.391Z,36.40
2018-11-21T17:43:50.220Z,35.27
2018-11-21T17:46:24.040Z,37.10
2018-11-21T17:48:57.806Z,38.60
2018-11-21T17:51:31.701Z,36.80
2018-11-21T17:54:06.065Z,37.27
2018-11-21T17:56:39.945Z,36.50
2018-11-21T17:59:13.830Z,38.13
2018-11-21T18:01:47.708Z,38.17
2018-11-21T18:04:21.476Z,38.83
2018-11-21T18:06:55.323Z,54.23
2018-11-21T18:09:32.061Z,38.33
2018-11-21T18:12:06.080Z,41.27
2018-11-21T18:14:39.922Z,41.17
2018-11-21T18:17:13.845Z,45.97
2018-11-21T18:19:47.767Z,40.50
2018-11-21T18:22:21.661Z,39.63
2018-11-21T18:24:55.437Z,37.57
2018-11-21T18:27:29.334Z,40.23
2018-11-21T18:30:03.223Z,38.70
2018-11-21T18:32:37.134Z,38.17
2018-11-21T18:35:12.600Z,40.63
2018-11-21T18:37:46.888Z,38.57
2018-11-21T18:40:22.215Z,39.07
2018-11-21T18:42:56.137Z,40.57
2018-11-21T18:45:33.997Z,41.33
2018-11-21T18:48:08.108Z,41.73
2018-11-21T18:50:41.923Z,40.50
2018-11-21T18:53:15.816Z,40.80
2018-11-21T18:56:13.062Z,40.80
2018-11-21T18:59:13.533Z,40.20
2018-11-21T19:01:47.353Z,41.73
2018-11-21T19:04:21.334Z,36.60
2018-11-21T19:06:55.106Z,39.37
2018-11-21T19:09:28.930Z,39.00
2018-11-21T19:12:02.736Z,39.33
2018-11-21T19:14:38.680Z,45.47
2018-11-21T19:17:10.447Z,39.73
2018-11-21T19:19:44.356Z,38.27
2018-11-21T19:22:18.137Z,40.17
2018-11-21T19:24:52.038Z,40.03
2018-11-21T19:27:26.224Z,44.83
2018-11-21T19:30:00.197Z,40.27
2018-11-21T19:32:33.973Z,38.37
2018-11-21T19:35:07.886Z,38.17
2018-11-21T19:37:41.807Z,40.47
2018-11-21T19:40:16.376Z,37.87
2018-11-21T19:42:50.148Z,37.80
2018-11-21T19:45:24.246Z,36.10
2018-11-21T19:47:58.055Z,37.47
2018-11-21T19:50:32.053Z,37.47
2018-11-21T19:53:05.818Z,35.27
2018-11-21T19:55:39.677Z,35.67
2018-11-21T19:58:13.537Z,34.80
2018-11-21T20:00:47.366Z,35.10
2018-11-21T20:03:21.127Z,34.27
2018-11-21T20:05:55.111Z,34.63
2018-11-21T20:08:28.925Z,32.93
2018-11-21T20:11:02.950Z,35.47
2018-11-21T20:13:36.821Z,33.20
2018-11-21T20:16:10.758Z,33.83
2018-11-21T20:18:44.509Z,32.33
2018-11-21T20:21:18.473Z,32.87
2018-11-21T20:23:52.255Z,33.37
2018-11-21T20:26:26.361Z,33.83
2018-11-21T20:29:00.586Z,33.40
2018-11-21T20:31:34.486Z,34.40
2018-11-21T20:34:08.412Z,33.77
2018-11-21T20:36:42.340Z,33.00
2018-11-21T20:39:16.361Z,32.50
2018-11-21T20:41:51.003Z,32.03
2018-11-21T20:44:24.889Z,34.60
2018-11-21T20:46:58.793Z,34.93
2018-11-21T20:49:32.560Z,33.50
2018-11-21T20:52:06.681Z,34.20
2018-11-21T20:54:40.456Z,34.87
2018-11-21T20:57:14.318Z,34.70
2018-11-21T20:59:50.957Z,35.20
2018-11-21T21:02:24.792Z,35.13
2018-11-21T21:04:58.599Z,34.37
2018-11-21T21:07:32.430Z,36.00
2018-11-21T21:10:06.961Z,34.23
2018-11-21T21:12:41.021Z,35.83
2018-11-21T21:15:14.853Z,38.37
2018-11-21T21:17:49.494Z,39.50
2018-11-21T21:20:24.900Z,34.30
2018-11-21T21:22:59.671Z,35.57
2018-11-21T21:25:33.470Z,35.63
2018-11-21T21:28:07.346Z,36.23
2018-11-21T21:30:41.157Z,34.53
2018-11-21T21:33:14.934Z,34.50
2018-11-21T21:35:48.721Z,36.27
2018-11-21T21:38:22.511Z,34.00
2018-11-21T21:40:56.410Z,33.47
2018-11-21T21:43:30.205Z,32.47
2018-11-21T21:46:07.836Z,33.97
2018-11-21T21:48:37.954Z,34.43
2018-11-21T21:51:14.215Z,35.63
2018-11-21T21:53:48.021Z,34.20
2018-11-21T21:56:21.924Z,34.00
2018-11-21T21:58:55.668Z,33.27
2018-11-21T22:01:29.477Z,34.00
2018-11-21T22:04:03.571Z,34.33
2018-11-21T22:06:37.464Z,33.50
2018-11-21T22:09:12.840Z,33.17
2018-11-21T22:11:46.706Z,33.60
2018-11-21T22:14:20.457Z,32.40
2018-11-21T22:16:54.448Z,31.07
2018-11-21T22:19:28.191Z,33.00
2018-11-21T22:22:01.969Z,33.07
2018-11-21T22:24:35.731Z,31.70
2018-11-21T22:27:09.695Z,31.53
2018-11-21T22:29:43.429Z,31.43
2018-11-21T22:32:17.315Z,30.70
2018-11-21T22:34:51.070Z,32.73
2018-11-21T22:37:24.883Z,30.43
2018-11-21T22:39:58.656Z,29.90
2018-11-21T22:42:32.445Z,30.23
2018-11-21T22:45:07.724Z,31.07
2018-11-21T22:47:42.172Z,31.47
2018-11-21T22:50:17.594Z,29.73
2018-11-21T22:52:51.400Z,29.63
2018-11-21T22:55:25.167Z,29.20
2018-11-21T22:57:58.960Z,30.63
2018-11-21T23:00:43.586Z,30.80
2018-11-21T23:03:18.155Z,30.40
2018-11-21T23:05:51.941Z,32.50
2018-11-21T23:08:25.746Z,30.60
2018-11-21T23:10:59.523Z,30.73
2018-11-21T23:13:33.431Z,30.23
2018-11-21T23:16:07.247Z,29.93
2018-11-21T23:18:41.144Z,29.67
2018-11-21T23:21:14.927Z,29.87
2018-11-21T23:23:49.224Z,30.93
2018-11-21T23:26:22.991Z,28.70
2018-11-21T23:28:56.812Z,29.50
2018-11-21T23:31:30.657Z,31.60
2018-11-21T23:34:04.478Z,29.53
2018-11-21T23:36:38.249Z,31.57
2018-11-21T23:39:12.200Z,29.03
2018-11-21T23:41:46.147Z,31.97
2018-11-21T23:44:20.144Z,30.83
2018-11-21T23:46:53.921Z,29.03
2018-11-21T23:49:27.814Z,29.73
2018-11-21T23:52:01.621Z,30.50
2018-11-21T23:54:35.468Z,30.57
2018-11-21T23:57:16.144Z,32.13
2018-11-21T23:59:43.328Z,31.13
